Time;durP1;ratioP1;P1;durP2;ratioP2;P2;SDS_P1;SDS_P2;PMS_P1;PMS_P2;Temp;Humidity;BMP_temperature;BMP_pressure;BME280_temperature;BME280_humidity;BME280_pressure;Samples;Min_cycle;Max_cycle;Signal;HPM_P1;HPM_P2
2022/07/13 00:00:16;;;;;;;2.55;1.83;;;20.40;48.60;;;20.87;42.49;98360.34;5026963;28;20260;-51
2022/07/13 00:02:44;;;;;;;1.40;1.30;;;20.40;48.50;;;20.82;41.90;98359.09;5027121;28;20080;-48
2022/07/13 00:05:11;;;;;;;1.30;1.20;;;20.40;48.40;;;20.77;41.96;98358.88;5026855;28;20315;-49
2022/07/13 00:07:39;;;;;;;1.27;1.17;;;20.30;48.40;;;20.75;42.21;98363.66;5027668;28;20067;-52
2022/07/13 00:10:08;;;;;;;1.30;1.20;;;20.30;48.50;;;20.77;42.10;98363.47;5026905;28;20379;-47
2022/07/13 00:12:36;;;;;;;1.50;1.40;;;20.30;48.40;;;20.78;42.34;98363.25;5026873;28;20049;-51
2022/07/13 00:15:05;;;;;;;1.30;1.20;;;20.40;48.50;;;20.74;42.50;98361.16;5026542;28;20049;-49
2022/07/13 00:17:33;;;;;;;1.30;1.17;;;20.30;48.80;;;20.73;42.36;98359.50;5026765;28;20057;-48
2022/07/13 00:20:00;;;;;;;1.25;1.17;;;20.30;48.80;;;20.69;42.40;98350.97;5024097;28;20245;-48
2022/07/13 00:22:28;;;;;;;2.20;1.27;;;20.20;48.90;;;20.69;42.77;98350.97;5025605;28;20061;-49
2022/07/13 00:24:56;;;;;;;1.40;1.30;;;20.20;49.10;;;20.65;42.69;98357.84;5027059;28;20057;-50
2022/07/13 00:27:24;;;;;;;1.35;1.20;;;20.10;49.50;;;20.59;43.12;98351.41;5027385;28;20053;-52
2022/07/13 00:29:52;;;;;;;1.83;1.15;;;20.10;49.80;;;20.58;43.15;98352.41;5026161;28;20064;-49
2022/07/13 00:32:21;;;;;;;1.30;1.20;;;20.10;49.70;;;20.57;42.86;98350.75;5026177;28;20379;-49
2022/07/13 00:34:49;;;;;;;1.75;1.30;;;20.10;49.60;;;20.53;43.00;98352.22;5025558;28;20072;-48
2022/07/13 00:37:17;;;;;;;3.38;1.63;;;20.00;49.60;;;20.50;43.22;98349.91;5024806;28;20382;-48
2022/07/13 00:39:44;;;;;;;1.33;1.23;;;20.00;49.60;;;20.45;43.29;98346.97;5024642;28;20248;-50
2022/07/13 00:42:12;;;;;;;3.00;1.80;;;20.00;49.90;;;20.44;43.01;98348.88;5040671;28;20060;-47
2022/07/13 00:44:40;;;;;;;1.98;1.58;;;20.00;49.50;;;20.45;43.07;98346.97;5026376;28;20244;-49
2022/07/13 00:47:08;;;;;;;2.88;1.95;;;20.00;49.30;;;20.44;42.98;98348.03;5026298;28;20063;-50
2022/07/13 00:49:36;;;;;;;2.45;1.65;;;20.00;49.40;;;20.42;43.05;98342.00;5025808;28;20055;-53
2022/07/13 00:52:05;;;;;;;2.63;1.30;;;19.90;49.50;;;20.40;43.08;98341.38;5026778;28;20053;-47
2022/07/13 00:54:34;;;;;;;1.17;1.02;;;20.00;49.60;;;20.35;43.23;98338.47;5026825;28;20248;-52
2022/07/13 00:57:04;;;;;;;2.55;1.30;;;19.90;50.10;;;20.29;43.12;98336.59;5041617;28;20057;-47
2022/07/13 00:59:34;;;;;;;1.70;1.10;;;19.90;50.00;;;20.26;43.38;98332.44;5025173;28;20064;-47
2022/07/13 01:02:02;;;;;;;1.38;1.10;;;19.80;50.00;;;20.25;43.21;98330.75;5026789;28;20041;-52
2022/07/13 01:04:31;;;;;;;1.67;1.48;;;19.80;49.90;;;20.26;43.53;98330.56;5027538;28;20243;-49
2022/07/13 01:06:59;;;;;;;3.65;1.13;;;19.80;49.80;;;20.32;42.96;98333.47;5027441;28;20060;-50
2022/07/13 01:09:27;;;;;;;1.20;1.10;;;20.00;49.50;;;20.36;43.34;98329.31;5026875;28;20225;-49
2022/07/13 01:11:55;;;;;;;1.20;1.10;;;20.00;49.30;;;20.38;43.11;98329.94;5026538;28;20236;-48
2022/07/13 01:14:24;;;;;;;1.67;1.10;;;20.10;49.20;;;20.43;43.01;98327.44;5027136;28;20371;-49
2022/07/13 01:16:54;;;;;;;1.45;1.13;;;20.10;49.00;;;20.46;43.03;98318.91;5026402;28;20059;-49
2022/07/13 01:19:23;;;;;;;1.30;1.20;;;20.20;48.90;;;20.51;42.88;98326.38;5024230;28;20045;-49
2022/07/13 01:21:59;;;;;;;1.20;1.10;;;20.20;48.60;;;20.56;42.71;98329.31;5024769;28;20053;-47
2022/07/13 01:24:30;;;;;;;1.50;1.10;;;20.30;48.50;;;20.60;42.66;98330.59;5025387;28;20063;-46
2022/07/13 01:27:00;;;;;;;1.40;1.30;;;20.30;48.30;;;20.61;42.44;98326.84;5023665;28;20067;-48
2022/07/13 01:29:28;;;;;;;1.80;1.38;;;20.30;48.30;;;20.61;42.77;98327.69;5026497;28;20045;-52
2022/07/13 01:32:02;;;;;;;1.98;1.30;;;20.40;48.30;;;20.63;42.62;98324.78;5025633;28;20057;-50
2022/07/13 01:34:30;;;;;;;1.20;1.10;;;20.40;48.10;;;20.68;42.57;98321.44;5028392;28;20065;-52
2022/07/13 01:36:59;;;;;;;1.85;1.40;;;20.40;48.10;;;20.67;42.69;98319.78;5040395;28;20064;-49
2022/07/13 01:39:27;;;;;;;1.65;1.52;;;20.40;48.10;;;20.67;42.79;98322.47;5025322;28;20063;-48
2022/07/13 01:41:55;;;;;;;1.25;1.02;;;20.40;48.30;;;20.64;42.83;98313.72;5026392;28;20431;-50
2022/07/13 01:44:23;;;;;;;1.50;1.30;;;20.40;48.30;;;20.67;42.62;98314.38;5026344;28;20048;-50
2022/07/13 01:46:53;;;;;;;1.55;1.20;;;20.40;48.10;;;20.69;42.54;98312.28;5040400;28;20053;-49
2022/07/13 01:49:21;;;;;;;1.05;1.05;;;20.40;48.00;;;20.69;42.74;98313.09;5023667;28;20378;-50
2022/07/13 01:51:49;;;;;;;1.23;1.13;;;20.50;48.10;;;20.71;42.23;98304.78;5025760;28;20058;-49
2022/07/13 01:54:17;;;;;;;1.90;1.35;;;20.50;48.00;;;20.71;42.54;98316.44;5026770;28;20490;-48
2022/07/13 01:56:45;;;;;;;1.30;1.20;;;20.50;48.10;;;20.68;42.61;98313.31;5040073;28;20064;-50
2022/07/13 01:59:13;;;;;;;1.17;1.08;;;20.40;48.20;;;20.64;42.72;98308.31;5024526;28;20050;-48
2022/07/13 02:01:41;;;;;;;2.80;1.48;;;20.40;48.30;;;20.62;42.81;98306.84;5024751;28;20050;-48
2022/07/13 02:04:09;;;;;;;1.30;1.20;;;20.30;48.40;;;20.60;42.63;98303.53;5024464;28;20060;-48
2022/07/13 02:06:39;;;;;;;2.60;1.30;;;20.30;48.50;;;20.61;42.63;98292.50;5023682;28;20057;-51
2022/07/13 02:09:06;;;;;;;1.73;1.63;;;20.40;48.40;;;20.64;42.68;98289.38;5025420;28;20056;-46
2022/07/13 02:11:35;;;;;;;1.02;1.00;;;20.40;48.20;;;20.68;42.71;98286.25;5026158;28;20076;-49
2022/07/13 02:14:03;;;;;;;1.55;1.20;;;20.50;48.20;;;20.71;42.71;98281.25;5026427;28;20053;-54
2022/07/13 02:16:31;;;;;;;1.15;1.00;;;20.50;48.00;;;20.70;42.74;98279.59;5040351;28;20067;-52
2022/07/13 02:18:59;;;;;;;1.60;1.35;;;20.50;48.20;;;20.67;42.95;98282.72;5025888;28;20048;-49
2022/07/13 02:21:27;;;;;;;1.35;1.20;;;20.40;48.40;;;20.64;42.68;98269.63;5027122;28;20053;-49
2022/07/13 02:23:55;;;;;;;1.73;1.63;;;20.40;48.50;;;20.62;42.96;98267.09;5029350;28;20045;-50
2022/07/13 02:26:22;;;;;;;1.48;1.23;;;20.30;48.70;;;20.62;42.80;98264.41;5029138;28;20244;-49
2022/07/13 02:28:50;;;;;;;1.60;1.50;;;20.40;48.70;;;20.67;42.81;98257.56;5028976;28;20053;-50
2022/07/13 02:31:19;;;;;;;1.55;1.20;;;20.40;48.70;;;20.68;42.86;98259.19;5045005;28;20274;-51
2022/07/13 02:33:47;;;;;;;1.73;1.30;;;20.40;48.70;;;20.65;43.05;98261.28;5029935;28;20045;-49
2022/07/13 02:36:15;;;;;;;1.35;1.23;;;20.40;49.00;;;20.64;43.33;98266.91;5029730;28;20037;-48
2022/07/13 02:38:42;;;;;;;1.27;1.17;;;20.40;49.00;;;20.62;43.29;98267.09;5030139;28;20052;-49
2022/07/13 02:41:11;;;;;;;2.90;1.20;;;20.40;49.30;;;20.61;43.67;98273.56;5029656;28;20063;-51
2022/07/13 02:43:39;;;;;;;1.90;1.45;;;20.30;49.40;;;20.61;43.37;98275.47;5029768;28;20041;-47
2022/07/13 02:46:07;;;;;;;1.40;1.13;;;20.30;49.50;;;20.59;43.56;98266.69;5044066;28;20052;-48
2022/07/13 02:48:35;;;;;;;1.33;1.23;;;20.30;49.80;;;20.44;43.81;98270.44;5043080;28;20053;-51
2022/07/13 02:51:03;;;;;;;2.05;1.40;;;20.00;50.40;;;20.34;44.00;98270.03;5028016;28;20054;-49
2022/07/13 02:53:30;;;;;;;1.73;1.20;;;19.90;50.80;;;20.34;44.19;98263.81;5029236;28;20091;-51
2022/07/13 02:55:59;;;;;;;2.33;1.15;;;19.90;51.00;;;20.35;44.11;98273.56;5043934;28;20351;-48
2022/07/13 02:58:29;;;;;;;1.50;1.30;;;19.90;50.80;;;20.32;44.50;98271.28;5043846;28;20060;-50
2022/07/13 03:00:57;;;;;;;1.60;1.30;;;19.90;51.10;;;20.30;44.50;98274.19;5043118;28;20061;-47
2022/07/13 03:03:25;;;;;;;1.42;1.33;;;19.90;51.30;;;20.30;44.79;98273.34;5027647;28;20393;-47
2022/07/13 03:05:56;;;;;;;2.63;1.30;;;19.90;51.40;;;20.29;44.60;98260.88;5028964;28;20059;-54
2022/07/13 03:08:24;;;;;;;2.35;1.50;;;19.90;51.50;;;20.25;44.60;98257.75;5029276;28;20068;-49
2022/07/13 03:10:51;;;;;;;1.50;1.40;;;19.90;51.60;;;20.22;44.93;98259.03;5043271;28;20068;-49
2022/07/13 03:13:20;;;;;;;1.40;1.30;;;19.90;51.60;;;20.22;45.09;98256.31;5027951;28;20045;-50
2022/07/13 03:15:48;;;;;;;1.40;1.30;;;19.90;51.50;;;20.23;44.91;98252.56;5027008;28;20055;-51
2022/07/13 03:18:17;;;;;;;1.23;1.10;;;19.90;51.50;;;20.26;45.14;98252.16;5025762;28;20057;-49
2022/07/13 03:20:47;;;;;;;2.13;1.58;;;20.00;51.40;;;20.27;44.93;98256.50;5024422;28;20053;-49
2022/07/13 03:23:16;;;;;;;1.33;1.23;;;20.00;51.30;;;20.29;44.96;98256.31;5043158;28;20057;-48
2022/07/13 03:25:44;;;;;;;1.85;1.35;;;20.00;51.40;;;20.30;44.76;98252.56;5028369;28;20057;-49
2022/07/13 03:28:12;;;;;;;2.42;1.40;;;20.00;51.30;;;20.31;45.13;98251.50;5029964;28;20340;-47
2022/07/13 03:30:40;;;;;;;1.42;1.30;;;20.00;51.40;;;20.30;44.98;98249.00;5025422;28;20061;-51
2022/07/13 03:33:08;;;;;;;1.92;1.33;;;20.00;51.40;;;20.28;45.20;98254.66;5027504;28;20259;-46
2022/07/13 03:35:36;;;;;;;2.72;1.23;;;20.00;51.40;;;20.25;45.16;98255.06;5042872;28;20252;-49
2022/07/13 03:38:04;;;;;;;1.67;1.33;;;20.00;51.70;;;20.22;45.12;98256.31;5025695;28;20076;-48
2022/07/13 03:40:33;;;;;;;1.42;1.25;;;19.90;51.80;;;20.18;45.39;98251.50;5026026;28;20274;-48
2022/07/13 03:43:02;;;;;;;1.45;1.20;;;19.90;52.00;;;20.16;45.29;98245.50;5028141;28;20044;-49
2022/07/13 03:45:30;;;;;;;2.72;1.40;;;19.80;52.00;;;20.15;45.29;98251.94;5025278;28;20240;-49
2022/07/13 03:47:58;;;;;;;1.60;1.50;;;19.80;52.00;;;20.12;45.62;98250.47;5041724;28;20053;-48
2022/07/13 03:50:26;;;;;;;2.47;1.80;;;19.80;52.20;;;20.08;45.66;98251.94;5009801;28;20064;-49
2022/07/13 03:52:55;;;;;;;1.90;1.50;;;19.80;52.40;;;20.02;45.77;98259.00;5025879;28;20083;-53
2022/07/13 03:55:23;;;;;;;2.10;1.40;;;19.70;52.80;;;19.97;46.15;98252.56;5027060;28;20061;-51
2022/07/13 03:57:51;;;;;;;1.88;1.63;;;19.60;53.10;;;19.96;46.07;98246.31;5027528;28;20053;-46
2022/07/13 04:00:19;;;;;;;1.52;1.30;;;19.60;52.90;;;19.95;46.10;98239.25;5024312;28;20049;-48
2022/07/13 04:02:51;;;;;;;1.27;1.00;;;19.70;52.90;;;19.97;45.84;98242.59;5042626;28;20064;-50
2022/07/13 04:05:20;;;;;;;1.70;1.23;;;19.70;52.80;;;19.99;46.06;98242.38;5027359;28;20260;-49
2022/07/13 04:07:48;;;;;;;1.25;1.13;;;19.70;52.70;;;20.01;45.87;98234.91;5026943;28;20073;-48
2022/07/13 04:10:20;;;;;;;1.30;1.20;;;19.80;52.60;;;20.01;46.20;98229.50;5024732;28;20061;-48
2022/07/13 04:12:50;;;;;;;1.73;1.27;;;19.80;52.80;;;19.98;46.03;98221.78;5025987;28;20072;-48
2022/07/13 04:15:21;;;;;;;1.30;1.20;;;19.70;53.00;;;19.98;46.00;98227.19;5042995;28;20065;-48
2022/07/13 04:17:50;;;;;;;2.90;1.40;;;19.70;52.70;;;20.03;46.05;98214.72;5025141;28;20561;-50
2022/07/13 04:20:19;;;;;;;1.60;1.50;;;19.80;52.60;;;20.08;45.88;98218.69;5041778;28;20071;-51
2022/07/13 04:22:48;;;;;;;1.13;1.02;;;19.80;52.40;;;20.10;46.08;98219.28;5025614;28;20056;-48
2022/07/13 04:25:17;;;;;;;1.45;1.20;;;19.90;52.40;;;20.11;45.91;98224.50;5026835;28;20061;-49
2022/07/13 04:27:46;;;;;;;1.52;1.42;;;19.90;52.40;;;20.11;45.95;98218.28;5024971;28;20293;-51
2022/07/13 04:30:14;;;;;;;1.98;1.48;;;19.90;52.50;;;20.09;46.14;98223.06;5042299;28;20081;-47
2022/07/13 04:32:42;;;;;;;1.52;1.33;;;19.80;52.60;;;20.05;46.26;98225.34;5008439;28;20063;-52
2022/07/13 04:35:10;;;;;;;2.38;1.60;;;19.70;52.90;;;20.04;46.33;98227.19;5026158;28;20248;-51
2022/07/13 04:37:42;;;;;;;2.20;1.30;;;19.70;53.00;;;20.02;46.29;98229.28;5041901;28;20351;-53
2022/07/13 04:40:11;;;;;;;2.65;1.40;;;19.80;53.20;;;20.01;46.28;98243.84;5025804;28;20236;-52
2022/07/13 04:42:40;;;;;;;1.58;1.48;;;19.70;53.30;;;20.02;46.61;98240.06;5024374;28;20062;-49
2022/07/13 04:45:10;;;;;;;1.40;1.30;;;19.80;53.40;;;20.00;46.75;98244.03;5025046;28;20056;-53
2022/07/13 04:47:38;;;;;;;3.33;1.60;;;19.70;53.80;;;19.97;46.91;98245.28;5025477;28;20063;-48
2022/07/13 04:50:07;;;;;;;2.33;1.60;;;19.70;54.00;;;19.96;47.05;98240.91;5041512;28;20053;-52
2022/07/13 04:52:35;;;;;;;1.75;1.27;;;19.60;54.20;;;19.97;46.99;98239.06;5042839;28;20053;-48
2022/07/13 04:55:05;;;;;;;2.35;2.00;;;19.70;54.30;;;19.98;47.16;98241.53;5025055;28;20381;-48
2022/07/13 04:57:33;;;;;;;2.45;1.30;;;19.70;54.50;;;20.00;47.11;98233.22;5024350;28;20056;-49
2022/07/13 05:00:01;;;;;;;2.03;1.48;;;19.70;54.50;;;20.02;47.27;98221.16;5026393;28;20374;-48
2022/07/13 05:02:30;;;;;;;1.70;1.35;;;19.80;54.50;;;20.04;47.14;98227.19;5042003;28;20049;-48
2022/07/13 05:04:58;;;;;;;3.95;1.80;;;19.80;54.40;;;20.06;47.60;98229.69;5025130;28;20381;-50
2022/07/13 05:07:28;;;;;;;1.55;1.45;;;19.80;54.40;;;20.10;47.51;98241.75;5041399;28;20053;-50
2022/07/13 05:09:57;;;;;;;1.30;1.20;;;19.90;54.60;;;20.14;48.02;98234.91;5027762;28;20479;-47
2022/07/13 05:12:25;;;;;;;1.50;1.40;;;19.90;55.00;;;20.18;47.77;98240.72;5041772;28;20059;-47
2022/07/13 05:14:53;;;;;;;1.38;1.27;;;20.00;54.70;;;20.26;47.65;98243.22;5024104;28;20065;-51
2022/07/13 05:17:21;;;;;;;1.20;1.10;;;20.10;54.50;;;20.34;47.67;98240.28;5024407;28;20524;-48
2022/07/13 05:19:48;;;;;;;1.30;1.20;;;20.30;54.10;;;20.44;47.63;98240.69;5024046;28;20076;-49
2022/07/13 05:22:16;;;;;;;1.98;1.50;;;20.50;53.90;;;20.55;47.45;98243.78;5026679;28;20054;-53
2022/07/13 05:24:44;;;;;;;1.52;1.10;;;20.60;53.50;;;20.63;47.28;98247.16;5024736;28;20057;-53
2022/07/13 05:27:14;;;;;;;1.40;1.30;;;20.70;53.20;;;20.71;46.79;98248.78;5025572;28;20049;-49
2022/07/13 05:29:42;;;;;;;1.85;1.40;;;20.80;52.70;;;20.81;46.84;98242.94;5026389;28;20041;-49
2022/07/13 05:32:10;;;;;;;2.30;1.30;;;20.90;52.40;;;20.88;46.38;98246.47;5040942;28;20049;-49
2022/07/13 05:34:38;;;;;;;2.72;1.33;;;21.00;52.10;;;20.90;47.30;98238.97;5025428;28;20064;-49
2022/07/13 05:37:06;;;;;;;1.75;1.40;;;21.00;53.00;;;20.91;47.75;98237.91;5024926;28;20231;-47
2022/07/13 05:39:34;;;;;;;1.55;1.42;;;21.00;53.50;;;20.93;47.64;98243.94;5026954;28;20045;-50
2022/07/13 05:42:03;;;;;;;2.10;1.52;;;21.00;54.00;;;20.96;47.68;98234.59;5040032;28;20362;-49
2022/07/13 05:44:30;;;;;;;2.13;1.35;;;20.90;54.30;;;20.97;46.84;98234.34;5023790;28;20256;-46
2022/07/13 05:47:00;;;;;;;3.10;1.35;;;20.90;53.30;;;20.99;47.22;98232.25;5024237;28;20068;-54
2022/07/13 05:49:28;;;;;;;1.85;1.60;;;20.90;53.80;;;21.01;46.75;98242.88;5025755;28;20053;-52
2022/07/13 05:51:56;;;;;;;3.53;1.40;;;20.90;53.20;;;21.06;46.89;98231.41;5040562;28;20065;-48
2022/07/13 05:54:26;;;;;;;4.78;1.95;;;21.00;52.80;;;21.12;46.51;98227.84;5024287;28;20277;-53
2022/07/13 05:57:12;;;;;;;4.15;1.80;;;21.10;52.40;;;21.18;46.30;98232.41;5029401;28;20060;-53
2022/07/13 05:59:39;;;;;;;7.22;1.80;;;21.20;52.30;;;21.23;46.92;98232.59;5029521;28;20042;-57
2022/07/13 06:02:07;;;;;;;6.55;2.75;;;21.40;52.40;;;21.30;47.05;98235.25;5029517;28;20052;-56
2022/07/13 06:04:36;;;;;;;4.55;1.58;;;21.50;52.70;;;21.36;47.16;98232.50;5027124;28;20241;-54
2022/07/13 06:07:03;;;;;;;3.83;1.48;;;21.60;52.70;;;21.45;46.97;98229.59;5029494;28;20061;-56
2022/07/13 06:09:31;;;;;;;3.08;1.38;;;21.60;52.80;;;21.51;47.00;98236.84;5029540;28;20059;-54
2022/07/13 06:12:00;;;;;;;4.28;1.50;;;21.70;52.80;;;21.58;46.96;98238.47;5028836;28;20059;-54
2022/07/13 06:14:28;;;;;;;2.03;1.75;;;21.80;52.80;;;21.66;47.08;98244.69;5029967;28;20362;-52
2022/07/13 06:16:55;;;;;;;2.35;1.40;;;21.80;52.80;;;21.74;46.89;98244.44;5029842;28;20057;-51
2022/07/13 06:19:23;;;;;;;3.53;1.67;;;21.90;52.80;;;21.79;47.26;98247.28;5029344;28;20045;-52
2022/07/13 06:21:51;;;;;;;2.03;1.27;;;21.90;52.90;;;21.86;46.95;98248.09;5040876;28;20055;-52
2022/07/13 06:24:19;;;;;;;2.63;1.58;;;22.00;52.80;;;21.91;46.99;98242.84;5029267;28;20055;-53
2022/07/13 06:26:47;;;;;;;2.85;1.30;;;22.00;52.60;;;21.94;46.72;98245.09;5029822;28;20067;-54
2022/07/13 06:29:15;;;;;;;2.60;1.40;;;22.10;52.30;;;21.99;46.26;98249.88;5028907;28;20563;-53
2022/07/13 06:31:43;;;;;;;1.60;1.23;;;22.10;52.00;;;22.02;45.94;98246.72;5028361;28;20576;-52
2022/07/13 06:34:11;;;;;;;3.90;2.55;;;22.20;51.70;;;22.06;46.39;98252.53;5027148;28;20061;-54
2022/07/13 06:36:39;;;;;;;3.13;1.35;;;22.20;51.90;;;22.09;46.45;98247.50;5028823;28;20061;-52
2022/07/13 06:39:07;;;;;;;7.15;1.52;;;22.20;51.90;;;22.13;45.99;98243.28;5029890;28;20057;-51
2022/07/13 06:41:35;;;;;;;7.28;1.95;;;22.30;51.80;;;22.19;45.72;98239.69;5028781;28;20067;-52
2022/07/13 06:44:03;;;;;;;1.88;1.55;;;22.30;51.50;;;22.26;45.79;98241.56;5028569;28;20057;-52
2022/07/13 06:46:31;;;;;;;2.10;1.48;;;22.50;51.40;;;22.32;45.93;98244.22;5029239;28;20061;-53
2022/07/13 06:48:59;;;;;;;4.00;1.80;;;22.60;51.20;;;22.41;46.04;98247.47;5028911;28;20068;-47
2022/07/13 06:51:27;;;;;;;1.75;1.38;;;22.60;50.90;;;22.46;44.89;98244.09;5026473;28;20049;-48
2022/07/13 06:53:55;;;;;;;3.10;1.60;;;22.70;49.80;;;22.51;44.09;98247.78;5028673;28;20053;-53
2022/07/13 06:56:23;;;;;;;2.15;1.48;;;22.80;48.80;;;22.57;43.01;98244.19;5028971;28;20063;-52
2022/07/13 06:58:50;;;;;;;2.03;1.70;;;22.80;47.60;;;22.64;42.95;98241.38;5028176;28;20061;-54
2022/07/13 07:01:19;;;;;;;1.50;1.40;;;22.90;47.40;;;22.72;43.04;98234.84;5028257;28;20049;-49
2022/07/13 07:03:47;;;;;;;6.32;1.33;;;23.00;47.20;;;22.80;43.22;98243.53;5028528;28;20370;-53
2022/07/13 07:06:15;;;;;;;1.40;1.30;;;23.10;47.50;;;22.90;42.76;98247.63;5028686;28;20124;-53
2022/07/13 07:08:43;;;;;;;1.70;1.55;;;23.20;47.50;;;23.00;42.35;98235.16;5027091;28;20047;-52
2022/07/13 07:11:11;;;;;;;1.52;1.10;;;23.30;46.30;;;23.13;41.67;98238.81;5029408;28;20203;-53
2022/07/13 07:13:39;;;;;;;2.47;1.40;;;23.50;45.60;;;23.22;41.08;98237.44;5028194;28;20431;-51
2022/07/13 07:16:07;;;;;;;1.60;1.27;;;23.60;45.00;;;23.32;40.67;98231.44;5042213;28;20067;-49
2022/07/13 07:18:35;;;;;;;1.40;1.20;;;23.70;44.60;;;23.42;40.92;98233.63;5028868;28;20503;-53
2022/07/13 07:21:03;;;;;;;2.03;1.42;;;23.80;44.60;;;23.49;40.95;98226.22;5026475;28;20079;-47
2022/07/13 07:23:32;;;;;;;3.63;1.55;;;23.90;44.60;;;23.57;40.57;98234.03;5036117;28;20336;-48
2022/07/13 07:26:02;;;;;;;3.25;1.60;;;23.90;44.40;;;23.62;39.92;98220.59;5030504;28;20075;-49
2022/07/13 07:28:30;;;;;;;1.67;1.58;;;23.90;43.50;;;23.68;40.00;98224.28;5026868;28;20057;-50
2022/07/13 07:30:58;;;;;;;3.92;1.60;;;24.00;43.70;;;23.75;39.85;98225.84;5027669;28;20061;-48
2022/07/13 07:33:26;;;;;;;1.65;1.55;;;24.10;43.50;;;23.84;39.66;98231.78;5027438;28;20052;-49
2022/07/13 07:35:53;;;;;;;1.42;1.33;;;24.20;43.20;;;23.92;39.53;98230.63;5028433;28;20057;-46
2022/07/13 07:38:21;;;;;;;2.90;1.75;;;24.30;42.90;;;24.02;39.46;98233.63;5026880;28;20063;-46
2022/07/13 07:40:49;;;;;;;7.82;2.13;;;24.50;42.90;;;24.11;39.65;98234.09;5027493;28;20048;-49
2022/07/13 07:43:17;;;;;;;2.90;1.75;;;24.50;42.80;;;24.20;39.63;98240.03;5028258;28;20671;-49
2022/07/13 07:45:45;;;;;;;4.30;1.83;;;24.70;42.70;;;24.28;38.88;98235.06;5027839;28;20127;-49
2022/07/13 07:48:13;;;;;;;4.20;1.67;;;24.80;42.00;;;24.39;38.91;98241.59;5027363;28;20248;-51
2022/07/13 07:50:41;;;;;;;3.22;1.65;;;24.80;41.90;;;24.44;38.52;98240.88;5027807;28;20059;-49
2022/07/13 07:53:09;;;;;;;3.75;2.03;;;24.90;41.50;;;24.51;38.64;98237.00;5027429;28;20072;-49
2022/07/13 07:55:37;;;;;;;2.72;1.80;;;25.00;41.90;;;24.61;38.48;98227.41;5027671;28;20060;-48
2022/07/13 07:58:05;;;;;;;5.53;1.80;;;25.10;41.50;;;24.67;38.58;98235.44;5027220;28;20059;-49
2022/07/13 08:00:33;;;;;;;9.75;2.42;;;25.20;41.40;;;24.75;38.00;98236.97;5030551;28;20042;-49
2022/07/13 08:03:03;;;;;;;3.42;1.58;;;25.30;41.00;;;24.82;38.38;98236.84;5030428;28;20041;-51
2022/07/13 08:05:32;;;;;;;2.65;1.40;;;25.30;40.90;;;24.85;37.63;98230.91;5031738;28;20053;-54
2022/07/13 08:08:01;;;;;;;3.38;1.55;;;25.40;40.40;;;24.89;37.25;98230.22;5037188;28;20044;-49
2022/07/13 08:10:30;;;;;;;5.05;1.65;;;25.40;39.70;;;24.95;37.30;98234.69;5034414;28;20583;-52
2022/07/13 08:13:03;;;;;;;2.92;1.45;;;25.40;39.80;;;24.99;37.07;98232.34;5037943;28;20048;-51
2022/07/13 08:15:33;;;;;;;11.18;2.45;;;25.40;39.30;;;25.01;36.65;98232.06;5032263;28;20384;-53
2022/07/13 08:18:02;;;;;;;1.65;1.17;;;25.40;39.30;;;25.06;35.91;98227.56;5032434;28;20045;-49
2022/07/13 08:20:30;;;;;;;2.03;1.42;;;25.50;38.40;;;25.09;35.93;98221.63;5044891;28;20049;-49
2022/07/13 08:22:58;;;;;;;2.08;1.20;;;25.60;38.40;;;25.10;35.42;98225.19;5045840;28;20327;-48
2022/07/13 08:25:27;;;;;;;1.17;1.08;;;25.60;37.80;;;25.11;35.48;98224.13;5046201;28;20049;-51
2022/07/13 08:27:54;;;;;;;1.50;1.35;;;25.50;37.50;;;25.12;35.16;98215.69;5044703;28;20048;-50
2022/07/13 08:30:22;;;;;;;1.30;1.20;;;25.50;37.70;;;25.16;35.46;98216.03;5045994;28;20057;-49
2022/07/13 08:32:50;;;;;;;2.42;1.30;;;25.50;37.60;;;25.15;35.06;98214.41;5045942;28;20049;-52
2022/07/13 08:40:51;;;;;;;1.67;1.38;;;25.40;36.90;;;25.11;35.18;98221.41;5046016;28;20324;-52
2022/07/13 08:43:20;;;;;;;2.38;1.42;;;25.30;37.60;;;25.06;35.11;98215.84;5046000;28;20445;-49
2022/07/13 08:45:48;;;;;;;4.30;1.85;;;25.30;37.30;;;25.07;35.08;98214.78;5046348;28;20047;-48
2022/07/13 08:48:20;;;;;;;5.35;1.48;;;25.30;37.60;;;25.06;34.68;98205.75;5046611;28;20287;-53
2022/07/13 08:50:49;;;;;;;2.38;1.20;;;25.20;37.10;;;25.02;34.84;98207.31;5045122;28;20669;-51
2022/07/13 08:53:17;;;;;;;3.25;1.70;;;25.20;37.40;;;25.00;34.69;98208.63;5046806;28;20063;-48
2022/07/13 08:55:46;;;;;;;3.05;1.30;;;25.10;37.60;;;24.99;34.72;98207.81;5047528;28;20572;-48
2022/07/13 08:58:17;;;;;;;1.80;1.33;;;25.10;37.40;;;24.99;34.18;98191.47;5046300;28;20051;-50
2022/07/13 09:00:45;;;;;;;2.70;1.80;;;25.10;37.00;;;25.03;34.55;98208.13;5045477;28;20049;-52
2022/07/13 09:03:13;;;;;;;3.80;1.70;;;25.20;37.00;;;25.05;34.17;98209.56;5046107;28;20335;-48
2022/07/13 09:05:43;;;;;;;2.72;1.40;;;25.30;36.80;;;25.09;34.17;98205.28;5046848;28;20051;-48
2022/07/13 09:08:12;;;;;;;2.22;1.48;;;25.30;36.80;;;25.12;34.04;98210.25;5045775;28;20036;-53
2022/07/13 09:10:57;;;;;;;2.53;1.30;;;25.30;36.80;;;25.13;33.61;98209.19;5044807;28;20264;-50
2022/07/13 09:13:34;;;;;;;2.42;1.35;;;25.40;35.40;;;25.12;33.32;98212.16;5046138;28;20339;-52
2022/07/13 09:16:19;;;;;;;1.60;1.45;;;25.30;35.20;;;25.14;33.44;98207.28;5047579;28;20242;-50
2022/07/13 09:18:57;;;;;;;2.78;1.30;;;25.30;35.00;;;25.14;33.15;98208.13;5045349;28;20060;-51
2022/07/13 09:21:30;;;;;;;3.27;1.30;;;25.30;35.80;;;25.17;33.71;98204.09;5044459;28;20055;-47
2022/07/13 09:24:01;;;;;;;3.83;1.50;;;25.30;36.20;;;25.21;33.26;98204.44;5042640;28;20063;-48
2022/07/13 09:26:45;;;;;;;2.08;1.30;;;25.40;35.80;;;25.21;33.19;98201.72;5044300;28;20059;-53
2022/07/13 09:29:14;;;;;;;2.83;1.33;;;25.40;34.80;;;25.22;32.80;98193.34;5044570;28;20044;-51
2022/07/13 09:31:53;;;;;;;6.60;1.30;;;25.30;35.50;;;25.27;31.94;98195.31;5049807;28;20049;-52
2022/07/13 09:34:42;;;;;;;1.58;1.25;;;25.40;34.00;;;25.28;32.51;98191.50;5050779;28;20049;-50
2022/07/13 09:37:15;;;;;;;3.47;1.40;;;25.40;34.70;;;25.37;32.31;98208.31;5048452;28;20059;-53
2022/07/13 09:40:08;;;;;;;1.63;1.50;;;25.50;34.00;;;25.37;32.06;98206.41;5051172;28;20063;-51
2022/07/13 09:42:42;;;;;;;1.65;1.55;;;25.50;32.80;;;25.38;31.63;98197.16;5049868;28;20060;-52
2022/07/13 09:48:00;;;;;;;3.78;1.58;;;25.50;33.90;;;25.40;31.78;98203.22;5050003;28;20051;-50
2022/07/13 09:50:41;;;;;;;3.90;1.25;;;25.50;33.40;;;25.42;29.73;98202.97;5049575;28;20061;-53
2022/07/13 09:53:29;;;;;;;2.92;1.30;;;25.60;30.70;;;25.40;30.30;98203.22;5050047;28;20055;-53
2022/07/13 09:56:01;;;;;;;5.55;1.48;;;25.50;30.50;;;25.45;30.86;98203.28;5050366;28;20248;-49
2022/07/13 09:58:34;;;;;;;5.93;1.75;;;25.60;32.40;;;25.49;30.41;98211.81;5049567;28;20405;-49
2022/07/13 10:01:03;;;;;;;1.50;1.40;;;25.70;31.80;;;25.56;30.27;98209.75;5048666;28;20067;-51
2022/07/13 10:03:32;;;;;;;1.60;1.30;;;25.80;31.10;;;25.61;29.48;98209.03;5049798;28;20071;-49
2022/07/13 10:06:01;;;;;;;1.98;1.27;;;26.10;31.00;;;25.72;29.94;98210.84;5049109;28;20053;-50
2022/07/13 10:08:30;;;;;;;9.07;1.75;;;26.20;31.10;;;25.80;29.59;98206.91;5049072;28;20459;-48
2022/07/13 10:10:59;;;;;;;1.83;1.33;;;26.20;30.40;;;25.89;29.01;98199.97;5048363;28;20052;-48
2022/07/13 10:13:27;;;;;;;1.75;1.20;;;26.20;30.40;;;26.00;27.51;98199.13;5048184;28;20053;-49
2022/07/13 10:15:55;;;;;;;1.90;1.30;;;26.30;29.20;;;26.04;27.77;98207.63;5049435;28;20061;-49
2022/07/13 10:18:28;;;;;;;2.13;1.50;;;26.30;29.30;;;26.09;27.48;98202.25;5047882;28;20347;-50
2022/07/13 10:21:35;;;;;;;1.40;1.30;;;26.30;29.10;;;26.16;27.15;98196.63;5049028;28;20247;-50
2022/07/13 10:24:13;;;;;;;1.08;1.05;;;26.50;27.40;;;26.27;26.55;98202.00;5032896;28;20045;-50
2022/07/13 10:26:41;;;;;;;1.50;1.40;;;26.50;28.30;;;26.36;26.28;98198.84;5048794;28;20052;-50
2022/07/13 10:29:11;;;;;;;2.58;1.40;;;26.70;27.50;;;26.47;26.30;98187.00;5046989;28;20057;-53
2022/07/13 10:31:40;;;;;;;2.00;1.25;;;26.80;27.80;;;26.64;27.30;98185.09;5048267;28;20049;-54
2022/07/13 10:34:11;;;;;;;1.52;1.42;;;27.00;28.90;;;26.79;26.37;98183.63;5047768;28;20048;-53
2022/07/13 10:36:49;;;;;;;2.72;1.17;;;27.30;27.60;;;26.90;25.93;98185.41;5049066;28;20049;-54